ITY509 LEPA-LIRF
Flight info
| Callsign | ITY509 |
|---|---|
| Flight time | 1h 19m |
| Altitude | 43000 |
| Route | MORSS DCT BAVON DCT ORKUM DCT ELSAG DCT ALG DCT ROMPO DCT RUXOP DCT BATOX DCT TINTO L5 VALMA |
| Aircraft | A359/H-SDE2E3GHIJ3J4J5LM1ORWXY/LB1D1 |
Departure
| Time | 2026-05-04 18:05 |
|---|---|
| Airport | Palma de Mallorca Airport (LEPA) |
Arrival
| Time | 2026-05-04 19:24 |
|---|---|
| Airport | Rome–Fiumicino Leonardo da Vinci International Airport (LIRF) |
| Time | Latitude | Longitude | Altitude | Speed | Heading |
|---|---|---|---|---|---|
| 2026-05-04 17:29 | 39.55059 | 2.73700 | 45 ft | 0 kts | 239° |
| 2026-05-04 17:53 | 39.55059 | 2.73701 | 44 ft | 1 kts | 239° |
| 2026-05-04 17:53 | 39.55068 | 2.73719 | 44 ft | 3 kts | 239° |
| 2026-05-04 17:53 | 39.55078 | 2.73742 | 42 ft | 3 kts | 239° |
| 2026-05-04 17:54 | 39.55087 | 2.73763 | 40 ft | 2 kts | 240° |
| 2026-05-04 17:54 | 39.55095 | 2.73781 | 41 ft | 3 kts | 258° |
| 2026-05-04 17:54 | 39.55094 | 2.73802 | 39 ft | 3 kts | 307° |
| 2026-05-04 17:54 | 39.55080 | 2.73819 | 40 ft | 3 kts | 329° |
| 2026-05-04 17:55 | 39.55067 | 2.73828 | 44 ft | 1 kts | 329° |
| 2026-05-04 17:55 | 39.55064 | 2.73831 | 43 ft | 0 kts | 329° |
| 2026-05-04 17:59 | 39.55068 | 2.73828 | 44 ft | 6 kts | 329° |
| 2026-05-04 18:00 | 39.55070 | 2.73826 | 44 ft | 0 kts | 329° |
| 2026-05-04 18:00 | 39.55077 | 2.73820 | 43 ft | 7 kts | 327° |
| 2026-05-04 18:00 | 39.55096 | 2.73804 | 44 ft | 5 kts | 327° |
| 2026-05-04 18:01 | 39.55130 | 2.73777 | 44 ft | 6 kts | 331° |
| 2026-05-04 18:01 | 39.55193 | 2.73816 | 44 ft | 15 kts | 19° |
| 2026-05-04 18:01 | 39.55294 | 2.73762 | 44 ft | 22 kts | 326° |
| 2026-05-04 18:02 | 39.55554 | 2.73551 | 44 ft | 14 kts | 328° |
| 2026-05-04 18:02 | 39.55671 | 2.73545 | 44 ft | 14 kts | 48° |
| 2026-05-04 18:02 | 39.55730 | 2.73661 | 44 ft | 17 kts | 58° |
| 2026-05-04 18:02 | 39.55800 | 2.73804 | 44 ft | 20 kts | 58° |
| 2026-05-04 18:03 | 39.55879 | 2.73973 | 44 ft | 23 kts | 58° |
| 2026-05-04 18:03 | 39.55970 | 2.74164 | 44 ft | 26 kts | 58° |
| 2026-05-04 18:03 | 39.56024 | 2.74260 | 44 ft | 6 kts | 33° |
| 2026-05-04 18:03 | 39.56155 | 2.74341 | 44 ft | 22 kts | 15° |
| 2026-05-04 18:04 | 39.56224 | 2.74289 | 44 ft | 14 kts | 281° |
| 2026-05-04 18:04 | 39.56202 | 2.74222 | 44 ft | 0 kts | 237° |
| 2026-05-04 18:04 | 39.55707 | 2.73168 | 47 ft | 138 kts | 241° |
| 2026-05-04 18:05 | 39.55198 | 2.72057 | 782 ft | 141 kts | 237° |
| 2026-05-04 18:05 | 39.54708 | 2.70934 | 1546 ft | 150 kts | 241° |
| 2026-05-04 18:05 | 39.54123 | 2.69676 | 2000 ft | 177 kts | 237° |
| 2026-05-04 18:05 | 39.53402 | 2.68249 | 2523 ft | 197 kts | 236° |
| 2026-05-04 18:06 | 39.51777 | 2.64998 | 3711 ft | 234 kts | 237° |
| 2026-05-04 18:06 | 39.50882 | 2.63193 | 4452 ft | 242 kts | 237° |
| 2026-05-04 18:06 | 39.49753 | 2.61569 | 4893 ft | 246 kts | 219° |
| 2026-05-04 18:07 | 39.48289 | 2.60374 | 5458 ft | 252 kts | 212° |
| 2026-05-04 18:07 | 39.46753 | 2.59265 | 6451 ft | 253 kts | 212° |
| 2026-05-04 18:07 | 39.45142 | 2.58303 | 7471 ft | 256 kts | 202° |
| 2026-05-04 18:07 | 39.43396 | 2.57755 | 8514 ft | 262 kts | 192° |
| 2026-05-04 18:08 | 39.41550 | 2.57824 | 9550 ft | 273 kts | 173° |
| 2026-05-04 18:08 | 39.39778 | 2.58874 | 10425 ft | 294 kts | 149° |
| 2026-05-04 18:08 | 39.38422 | 2.61045 | 10853 ft | 333 kts | 120° |
| 2026-05-04 18:08 | 39.37896 | 2.64092 | 11236 ft | 366 kts | 93° |
| 2026-05-04 18:09 | 39.39644 | 2.70500 | 12544 ft | 393 kts | 62° |
| 2026-05-04 18:09 | 39.41852 | 2.76456 | 14078 ft | 402 kts | 66° |
| 2026-05-04 18:10 | 39.42943 | 2.79812 | 14827 ft | 408 kts | 68° |
| 2026-05-04 18:10 | 39.44007 | 2.83253 | 15548 ft | 415 kts | 69° |
| 2026-05-04 18:10 | 39.45060 | 2.86757 | 16276 ft | 421 kts | 69° |
| 2026-05-04 18:10 | 39.46113 | 2.90319 | 17001 ft | 427 kts | 69° |
| 2026-05-04 18:11 | 39.47175 | 2.93944 | 17733 ft | 433 kts | 69° |
| 2026-05-04 18:11 | 39.48229 | 2.97563 | 18433 ft | 439 kts | 70° |
| 2026-05-04 18:11 | 39.49324 | 3.01334 | 19055 ft | 445 kts | 70° |
| 2026-05-04 18:11 | 39.50404 | 3.05062 | 19697 ft | 451 kts | 70° |
| 2026-05-04 18:12 | 39.51511 | 3.08895 | 20265 ft | 458 kts | 70° |
| 2026-05-04 18:12 | 39.52634 | 3.12791 | 20930 ft | 464 kts | 70° |
| 2026-05-04 18:12 | 39.53771 | 3.16738 | 21611 ft | 470 kts | 71° |
| 2026-05-04 18:12 | 39.54920 | 3.20735 | 22312 ft | 475 kts | 71° |
| 2026-05-04 18:13 | 39.56079 | 3.24776 | 22953 ft | 482 kts | 71° |
| 2026-05-04 18:13 | 39.57252 | 3.28869 | 23549 ft | 488 kts | 71° |
| 2026-05-04 18:13 | 39.59638 | 3.37213 | 24696 ft | 497 kts | 71° |
| 2026-05-04 18:14 | 39.60844 | 3.41442 | 25296 ft | 501 kts | 71° |
| 2026-05-04 18:14 | 39.62055 | 3.45694 | 25861 ft | 505 kts | 71° |
| 2026-05-04 18:14 | 39.63276 | 3.49991 | 26448 ft | 509 kts | 71° |
| 2026-05-04 18:15 | 39.65722 | 3.58617 | 27592 ft | 516 kts | 72° |
| 2026-05-04 18:15 | 39.68230 | 3.67491 | 28722 ft | 524 kts | 72° |
| 2026-05-04 18:15 | 39.69470 | 3.71890 | 29254 ft | 528 kts | 72° |
| 2026-05-04 18:16 | 39.70735 | 3.76386 | 29780 ft | 532 kts | 72° |
| 2026-05-04 18:16 | 39.72005 | 3.80906 | 30233 ft | 536 kts | 72° |
| 2026-05-04 18:16 | 39.73286 | 3.85474 | 30683 ft | 539 kts | 72° |
| 2026-05-04 18:17 | 39.75862 | 3.94683 | 31465 ft | 547 kts | 72° |
| 2026-05-04 18:17 | 39.77163 | 3.99346 | 31826 ft | 550 kts | 72° |
| 2026-05-04 18:17 | 39.79782 | 4.08763 | 32525 ft | 557 kts | 72° |
| 2026-05-04 18:18 | 39.81101 | 4.13517 | 32857 ft | 560 kts | 72° |
| 2026-05-04 18:18 | 39.82426 | 4.18305 | 33180 ft | 564 kts | 72° |
| 2026-05-04 18:18 | 39.83752 | 4.23101 | 33646 ft | 562 kts | 72° |
| 2026-05-04 18:18 | 39.85071 | 4.27882 | 34195 ft | 560 kts | 72° |
| 2026-05-04 18:19 | 39.87692 | 4.37406 | 34993 ft | 559 kts | 71° |
| 2026-05-04 18:19 | 39.88997 | 4.42166 | 35379 ft | 558 kts | 71° |
| 2026-05-04 18:19 | 39.90300 | 4.46925 | 35775 ft | 557 kts | 71° |
| 2026-05-04 18:20 | 39.91600 | 4.51683 | 36141 ft | 556 kts | 71° |
| 2026-05-04 18:20 | 39.92896 | 4.56433 | 36497 ft | 556 kts | 71° |
| 2026-05-04 18:20 | 39.94184 | 4.61164 | 36934 ft | 553 kts | 71° |
| 2026-05-04 18:20 | 39.95467 | 4.65883 | 37327 ft | 552 kts | 71° |
| 2026-05-04 18:21 | 39.96720 | 4.70625 | 37643 ft | 552 kts | 72° |
| 2026-05-04 18:21 | 39.97839 | 4.75347 | 37957 ft | 552 kts | 74° |
| 2026-05-04 18:21 | 39.98908 | 4.80159 | 38292 ft | 551 kts | 75° |
| 2026-05-04 18:21 | 39.99956 | 4.84968 | 38602 ft | 551 kts | 75° |
| 2026-05-04 18:22 | 40.01007 | 4.89775 | 38868 ft | 550 kts | 75° |
| 2026-05-04 18:22 | 40.02064 | 4.94559 | 39137 ft | 549 kts | 74° |
| 2026-05-04 18:22 | 40.03130 | 4.99334 | 39422 ft | 547 kts | 74° |
| 2026-05-04 18:22 | 40.04200 | 5.04094 | 39708 ft | 545 kts | 73° |
| 2026-05-04 18:23 | 40.05269 | 5.08835 | 39945 ft | 545 kts | 73° |
| 2026-05-04 18:23 | 40.06340 | 5.13583 | 40146 ft | 544 kts | 73° |
| 2026-05-04 18:23 | 40.07408 | 5.18329 | 40388 ft | 544 kts | 73° |
| 2026-05-04 18:23 | 40.08472 | 5.23066 | 40626 ft | 543 kts | 73° |
| 2026-05-04 18:24 | 40.09533 | 5.27802 | 40819 ft | 543 kts | 73° |
| 2026-05-04 18:24 | 40.10590 | 5.32535 | 41053 ft | 542 kts | 73° |
| 2026-05-04 18:24 | 40.11642 | 5.37254 | 41324 ft | 540 kts | 73° |
| 2026-05-04 18:24 | 40.12686 | 5.41949 | 41612 ft | 537 kts | 73° |
| 2026-05-04 18:25 | 40.13714 | 5.46585 | 41804 ft | 537 kts | 73° |
| 2026-05-04 18:25 | 40.14765 | 5.51332 | 41972 ft | 537 kts | 73° |
| 2026-05-04 18:25 | 40.15802 | 5.56024 | 42145 ft | 537 kts | 73° |
| 2026-05-04 18:25 | 40.16821 | 5.60650 | 42298 ft | 537 kts | 73° |
| 2026-05-04 18:26 | 40.17854 | 5.65345 | 42474 ft | 537 kts | 73° |
| 2026-05-04 18:26 | 40.18884 | 5.70038 | 42637 ft | 536 kts | 73° |
| 2026-05-04 18:26 | 40.19910 | 5.74720 | 42841 ft | 534 kts | 73° |
| 2026-05-04 18:26 | 40.20929 | 5.79384 | 42973 ft | 534 kts | 73° |
| 2026-05-04 18:27 | 40.22955 | 5.88683 | 43128 ft | 528 kts | 73° |
| 2026-05-04 18:27 | 40.23961 | 5.93315 | 42989 ft | 529 kts | 73° |
| 2026-05-04 18:27 | 40.24965 | 5.97947 | 42979 ft | 532 kts | 73° |
| 2026-05-04 18:28 | 40.26987 | 6.07299 | 42976 ft | 535 kts | 73° |
| 2026-05-04 18:28 | 40.29005 | 6.16661 | 42982 ft | 533 kts | 74° |
| 2026-05-04 18:29 | 40.31006 | 6.26013 | 42996 ft | 532 kts | 74° |
| 2026-05-04 18:29 | 40.32999 | 6.35365 | 42985 ft | 533 kts | 74° |
| 2026-05-04 18:30 | 40.35978 | 6.49412 | 42991 ft | 533 kts | 74° |
| 2026-05-04 18:31 | 40.37937 | 6.58695 | 42994 ft | 531 kts | 74° |
| 2026-05-04 18:31 | 40.39896 | 6.68020 | 42993 ft | 530 kts | 74° |
| 2026-05-04 18:32 | 40.41849 | 6.77362 | 42995 ft | 530 kts | 74° |
| 2026-05-04 18:32 | 40.43794 | 6.86702 | 43000 ft | 530 kts | 74° |
| 2026-05-04 18:33 | 40.45725 | 6.96020 | 42997 ft | 528 kts | 74° |
| 2026-05-04 18:33 | 40.47649 | 7.05341 | 43005 ft | 528 kts | 74° |
| 2026-05-04 18:34 | 40.49563 | 7.14658 | 43008 ft | 528 kts | 75° |
| 2026-05-04 18:34 | 40.51457 | 7.23917 | 43008 ft | 528 kts | 75° |
| 2026-05-04 18:35 | 40.53357 | 7.33251 | 43011 ft | 528 kts | 75° |
| 2026-05-04 18:35 | 40.55248 | 7.42575 | 43012 ft | 528 kts | 75° |
| 2026-05-04 18:36 | 40.56692 | 7.52035 | 43012 ft | 528 kts | 82° |
| 2026-05-04 18:36 | 40.57597 | 7.61630 | 43009 ft | 528 kts | 84° |
| 2026-05-04 18:37 | 40.58407 | 7.71211 | 43018 ft | 527 kts | 84° |
| 2026-05-04 18:37 | 40.59206 | 7.80787 | 43020 ft | 526 kts | 84° |
| 2026-05-04 18:38 | 40.60002 | 7.90302 | 43025 ft | 526 kts | 84° |
| 2026-05-04 18:38 | 40.60807 | 7.99933 | 43018 ft | 526 kts | 84° |
| 2026-05-04 18:39 | 40.61593 | 8.09440 | 43018 ft | 525 kts | 84° |
| 2026-05-04 18:39 | 40.62383 | 8.19006 | 43030 ft | 524 kts | 84° |
| 2026-05-04 18:40 | 40.64129 | 8.28297 | 43023 ft | 524 kts | 69° |
| 2026-05-04 18:40 | 40.66811 | 8.37235 | 43017 ft | 524 kts | 66° |
| 2026-05-04 18:41 | 40.69615 | 8.46035 | 43029 ft | 524 kts | 66° |
| 2026-05-04 18:41 | 40.72427 | 8.54872 | 43036 ft | 523 kts | 66° |
| 2026-05-04 18:42 | 40.75218 | 8.63746 | 43033 ft | 523 kts | 66° |
| 2026-05-04 18:42 | 40.77989 | 8.72626 | 43026 ft | 523 kts | 66° |
| 2026-05-04 18:43 | 40.80756 | 8.81527 | 43049 ft | 523 kts | 67° |
| 2026-05-04 18:43 | 40.83514 | 8.90426 | 43034 ft | 524 kts | 67° |
| 2026-05-04 18:44 | 40.86268 | 8.99342 | 43041 ft | 524 kts | 67° |
| 2026-05-04 18:44 | 40.89018 | 9.08272 | 43041 ft | 524 kts | 67° |
| 2026-05-04 18:45 | 40.91739 | 9.17141 | 43040 ft | 524 kts | 66° |
| 2026-05-04 18:45 | 40.94473 | 9.26078 | 43041 ft | 524 kts | 66° |
| 2026-05-04 18:46 | 40.97201 | 9.35025 | 43058 ft | 524 kts | 67° |
| 2026-05-04 18:46 | 40.99920 | 9.43973 | 43024 ft | 524 kts | 67° |
| 2026-05-04 18:47 | 41.02627 | 9.52914 | 43021 ft | 522 kts | 66° |
| 2026-05-04 18:47 | 41.05318 | 9.61834 | 43028 ft | 520 kts | 67° |
| 2026-05-04 18:48 | 41.08000 | 9.70749 | 43037 ft | 520 kts | 67° |
| 2026-05-04 18:48 | 41.10223 | 9.78162 | 43042 ft | 520 kts | 67° |
| 2026-05-04 18:49 | 41.13314 | 9.88593 | 43055 ft | 519 kts | 67° |
| 2026-05-04 18:49 | 41.15482 | 9.95991 | 43056 ft | 516 kts | 67° |
| 2026-05-04 18:49 | 41.16776 | 10.00418 | 42947 ft | 512 kts | 67° |
| 2026-05-04 18:50 | 41.18060 | 10.04789 | 42128 ft | 505 kts | 67° |
| 2026-05-04 18:50 | 41.19345 | 10.09128 | 40769 ft | 508 kts | 66° |
| 2026-05-04 18:50 | 41.20649 | 10.13518 | 39331 ft | 514 kts | 66° |
| 2026-05-04 18:50 | 41.21973 | 10.17967 | 37735 ft | 521 kts | 66° |
| 2026-05-04 18:51 | 41.23299 | 10.22428 | 36782 ft | 513 kts | 66° |
| 2026-05-04 18:51 | 41.24596 | 10.26819 | 36145 ft | 510 kts | 66° |
| 2026-05-04 18:51 | 41.25889 | 10.31206 | 35437 ft | 511 kts | 66° |
| 2026-05-04 18:51 | 41.27188 | 10.35620 | 34646 ft | 515 kts | 67° |
| 2026-05-04 18:52 | 41.28497 | 10.40077 | 33755 ft | 519 kts | 67° |
| 2026-05-04 18:52 | 41.29812 | 10.44561 | 32836 ft | 523 kts | 67° |
| 2026-05-04 18:52 | 41.31136 | 10.49083 | 31924 ft | 527 kts | 67° |
| 2026-05-04 18:52 | 41.32468 | 10.53641 | 30975 ft | 531 kts | 67° |
| 2026-05-04 18:53 | 41.33811 | 10.58248 | 29961 ft | 536 kts | 67° |
| 2026-05-04 18:53 | 41.35164 | 10.62894 | 28913 ft | 538 kts | 67° |
| 2026-05-04 18:53 | 41.36506 | 10.67515 | 28217 ft | 533 kts | 67° |
| 2026-05-04 18:53 | 41.37816 | 10.72034 | 27515 ft | 528 kts | 68° |
| 2026-05-04 18:54 | 41.39130 | 10.76575 | 26803 ft | 523 kts | 68° |
| 2026-05-04 18:54 | 41.40432 | 10.81082 | 26086 ft | 519 kts | 68° |
| 2026-05-04 18:54 | 41.41738 | 10.85609 | 25361 ft | 515 kts | 68° |
| 2026-05-04 18:54 | 41.43017 | 10.90048 | 24673 ft | 511 kts | 68° |
| 2026-05-04 18:55 | 41.44281 | 10.94443 | 23999 ft | 505 kts | 68° |
| 2026-05-04 18:55 | 41.46762 | 11.03087 | 22570 ft | 493 kts | 69° |
| 2026-05-04 18:55 | 41.47961 | 11.07273 | 21847 ft | 487 kts | 69° |
| 2026-05-04 18:56 | 41.49153 | 11.11465 | 21133 ft | 481 kts | 69° |
| 2026-05-04 18:56 | 41.50317 | 11.15616 | 20456 ft | 474 kts | 69° |
| 2026-05-04 18:56 | 41.51461 | 11.19703 | 20066 ft | 461 kts | 69° |
| 2026-05-04 18:56 | 41.52561 | 11.23630 | 19943 ft | 443 kts | 69° |
| 2026-05-04 18:57 | 41.53618 | 11.27411 | 19812 ft | 426 kts | 69° |
| 2026-05-04 18:57 | 41.54635 | 11.31047 | 19639 ft | 411 kts | 70° |
| 2026-05-04 18:57 | 41.55619 | 11.34568 | 19474 ft | 398 kts | 70° |
| 2026-05-04 18:57 | 41.56569 | 11.37972 | 19208 ft | 388 kts | 70° |
| 2026-05-04 18:58 | 41.57509 | 11.41347 | 18693 ft | 387 kts | 70° |
| 2026-05-04 18:58 | 41.58452 | 11.44706 | 18205 ft | 384 kts | 70° |
| 2026-05-04 18:58 | 41.59391 | 11.48027 | 17729 ft | 380 kts | 69° |
| 2026-05-04 18:58 | 41.60318 | 11.51306 | 17295 ft | 375 kts | 69° |
| 2026-05-04 18:59 | 41.61232 | 11.54547 | 16864 ft | 370 kts | 69° |
| 2026-05-04 18:59 | 41.62134 | 11.57749 | 16444 ft | 366 kts | 69° |
| 2026-05-04 18:59 | 41.63015 | 11.60883 | 16028 ft | 363 kts | 69° |
| 2026-05-04 18:59 | 41.63899 | 11.64031 | 15609 ft | 361 kts | 69° |
| 2026-05-04 19:00 | 41.64778 | 11.67165 | 15194 ft | 358 kts | 69° |
| 2026-05-04 19:00 | 41.65648 | 11.70269 | 14778 ft | 355 kts | 69° |
| 2026-05-04 19:00 | 41.66511 | 11.73354 | 14373 ft | 353 kts | 69° |
| 2026-05-04 19:00 | 41.67360 | 11.76394 | 14192 ft | 342 kts | 69° |
| 2026-05-04 19:01 | 41.68174 | 11.79311 | 14048 ft | 329 kts | 69° |
| 2026-05-04 19:01 | 41.68969 | 11.82165 | 13684 ft | 325 kts | 69° |
| 2026-05-04 19:01 | 41.69757 | 11.84990 | 13337 ft | 322 kts | 69° |
| 2026-05-04 19:01 | 41.70534 | 11.87779 | 13023 ft | 318 kts | 69° |
| 2026-05-04 19:02 | 41.71310 | 11.90562 | 12910 ft | 321 kts | 69° |
| 2026-05-04 19:02 | 41.72083 | 11.93360 | 12749 ft | 321 kts | 69° |
| 2026-05-04 19:02 | 41.72855 | 11.96156 | 12592 ft | 320 kts | 69° |
| 2026-05-04 19:02 | 41.73671 | 11.98888 | 12442 ft | 310 kts | 62° |
| 2026-05-04 19:03 | 41.75011 | 12.01019 | 12301 ft | 293 kts | 32° |
| 2026-05-04 19:03 | 41.76851 | 12.01936 | 12138 ft | 280 kts | 1° |
| 2026-05-04 19:03 | 41.78756 | 12.01646 | 11995 ft | 275 kts | 341° |
| 2026-05-04 19:03 | 41.80587 | 12.00897 | 11852 ft | 276 kts | 339° |
| 2026-05-04 19:04 | 41.82393 | 12.00104 | 11715 ft | 276 kts | 339° |
| 2026-05-04 19:04 | 41.84222 | 11.99309 | 11573 ft | 276 kts | 339° |
| 2026-05-04 19:04 | 41.86047 | 11.98524 | 11415 ft | 275 kts | 339° |
| 2026-05-04 19:04 | 41.87871 | 11.97745 | 11291 ft | 275 kts | 339° |
| 2026-05-04 19:05 | 41.89695 | 11.96968 | 11147 ft | 275 kts | 339° |
| 2026-05-04 19:05 | 41.91518 | 11.96194 | 10990 ft | 275 kts | 339° |
| 2026-05-04 19:05 | 41.93342 | 11.95420 | 10852 ft | 275 kts | 339° |
| 2026-05-04 19:05 | 41.95166 | 11.94645 | 10706 ft | 275 kts | 340° |
| 2026-05-04 19:06 | 41.96987 | 11.93871 | 10561 ft | 274 kts | 340° |
| 2026-05-04 19:06 | 41.98809 | 11.93098 | 10397 ft | 274 kts | 339° |
| 2026-05-04 19:06 | 42.00628 | 11.92324 | 10274 ft | 275 kts | 340° |
| 2026-05-04 19:06 | 42.02455 | 11.91547 | 10124 ft | 276 kts | 340° |
| 2026-05-04 19:07 | 42.04261 | 11.90779 | 9954 ft | 275 kts | 340° |
| 2026-05-04 19:07 | 42.06085 | 11.90004 | 9806 ft | 275 kts | 340° |
| 2026-05-04 19:07 | 42.07890 | 11.89236 | 9656 ft | 267 kts | 340° |
| 2026-05-04 19:07 | 42.09644 | 11.88491 | 9514 ft | 263 kts | 340° |
| 2026-05-04 19:08 | 42.11386 | 11.87747 | 9366 ft | 262 kts | 340° |
| 2026-05-04 19:08 | 42.13127 | 11.87002 | 9224 ft | 262 kts | 340° |
| 2026-05-04 19:08 | 42.14866 | 11.86258 | 9079 ft | 262 kts | 340° |
| 2026-05-04 19:08 | 42.16606 | 11.85513 | 8937 ft | 262 kts | 340° |
| 2026-05-04 19:09 | 42.18341 | 11.84770 | 8800 ft | 261 kts | 340° |
| 2026-05-04 19:09 | 42.20077 | 11.84026 | 8654 ft | 261 kts | 340° |
| 2026-05-04 19:09 | 42.21806 | 11.83286 | 8517 ft | 261 kts | 340° |
| 2026-05-04 19:09 | 42.23538 | 11.82544 | 8377 ft | 261 kts | 340° |
| 2026-05-04 19:10 | 42.25265 | 11.81806 | 8239 ft | 260 kts | 340° |
| 2026-05-04 19:10 | 42.26992 | 11.81067 | 8102 ft | 260 kts | 340° |
| 2026-05-04 19:10 | 42.28720 | 11.80342 | 7959 ft | 260 kts | 343° |
| 2026-05-04 19:10 | 42.30517 | 11.80152 | 7823 ft | 262 kts | 9° |
| 2026-05-04 19:11 | 42.32151 | 11.81158 | 7687 ft | 259 kts | 42° |
| 2026-05-04 19:11 | 42.33165 | 11.83113 | 7554 ft | 254 kts | 70° |
| 2026-05-04 19:11 | 42.33742 | 11.85369 | 7419 ft | 254 kts | 76° |
| 2026-05-04 19:11 | 42.34257 | 11.87653 | 7283 ft | 253 kts | 76° |
| 2026-05-04 19:12 | 42.34756 | 11.89929 | 7150 ft | 250 kts | 79° |
| 2026-05-04 19:12 | 42.34065 | 11.94088 | 6910 ft | 224 kts | 139° |
| 2026-05-04 19:12 | 42.32759 | 11.95157 | 6795 ft | 220 kts | 161° |
| 2026-05-04 19:13 | 42.31307 | 11.95802 | 6672 ft | 220 kts | 165° |
| 2026-05-04 19:13 | 42.29845 | 11.96398 | 6558 ft | 219 kts | 165° |
| 2026-05-04 19:13 | 42.28407 | 11.96990 | 6447 ft | 219 kts | 164° |
| 2026-05-04 19:13 | 42.26956 | 11.97598 | 6324 ft | 218 kts | 164° |
| 2026-05-04 19:14 | 42.25510 | 11.98208 | 6207 ft | 217 kts | 164° |
| 2026-05-04 19:14 | 42.24071 | 11.98816 | 6098 ft | 217 kts | 164° |
| 2026-05-04 19:14 | 42.22633 | 11.99426 | 5916 ft | 216 kts | 164° |
| 2026-05-04 19:14 | 42.21208 | 12.00030 | 5731 ft | 214 kts | 163° |
| 2026-05-04 19:15 | 42.19786 | 12.00636 | 5620 ft | 214 kts | 164° |
| 2026-05-04 19:15 | 42.18365 | 12.01242 | 5532 ft | 214 kts | 164° |
| 2026-05-04 19:15 | 42.16950 | 12.01846 | 5434 ft | 213 kts | 164° |
| 2026-05-04 19:15 | 42.15551 | 12.02442 | 5321 ft | 213 kts | 164° |
| 2026-05-04 19:16 | 42.14136 | 12.03045 | 5217 ft | 213 kts | 163° |
| 2026-05-04 19:16 | 42.12731 | 12.03658 | 5102 ft | 212 kts | 162° |
| 2026-05-04 19:16 | 42.11450 | 12.04642 | 5033 ft | 214 kts | 142° |
| 2026-05-04 19:16 | 42.10390 | 12.06054 | 4829 ft | 214 kts | 135° |
| 2026-05-04 19:17 | 42.09392 | 12.07535 | 4616 ft | 214 kts | 135° |
| 2026-05-04 19:17 | 42.08394 | 12.09020 | 4432 ft | 213 kts | 135° |
| 2026-05-04 19:17 | 42.07394 | 12.10490 | 4263 ft | 212 kts | 136° |
| 2026-05-04 19:17 | 42.06277 | 12.11754 | 4094 ft | 208 kts | 149° |
| 2026-05-04 19:18 | 42.04989 | 12.12643 | 3991 ft | 208 kts | 159° |
| 2026-05-04 19:18 | 42.03632 | 12.13297 | 3681 ft | 207 kts | 163° |
| 2026-05-04 19:18 | 42.02269 | 12.13889 | 3443 ft | 205 kts | 163° |
| 2026-05-04 19:18 | 42.00911 | 12.14462 | 3214 ft | 204 kts | 163° |
| 2026-05-04 19:19 | 41.99552 | 12.15038 | 3087 ft | 205 kts | 163° |
| 2026-05-04 19:19 | 41.98195 | 12.15618 | 3080 ft | 205 kts | 163° |
| 2026-05-04 19:19 | 41.96855 | 12.16190 | 3059 ft | 195 kts | 163° |
| 2026-05-04 19:19 | 41.95602 | 12.16724 | 2990 ft | 185 kts | 163° |
| 2026-05-04 19:20 | 41.94395 | 12.17234 | 2795 ft | 179 kts | 163° |
| 2026-05-04 19:20 | 41.93247 | 12.17716 | 2524 ft | 170 kts | 163° |
| 2026-05-04 19:20 | 41.92164 | 12.18173 | 2297 ft | 156 kts | 163° |
| 2026-05-04 19:20 | 41.91162 | 12.18596 | 2096 ft | 145 kts | 163° |
| 2026-05-04 19:21 | 41.90236 | 12.18986 | 1813 ft | 134 kts | 163° |
| 2026-05-04 19:21 | 41.89384 | 12.19345 | 1644 ft | 123 kts | 163° |
| 2026-05-04 19:21 | 41.88576 | 12.19682 | 1467 ft | 121 kts | 164° |
| 2026-05-04 19:21 | 41.87765 | 12.19997 | 1310 ft | 122 kts | 165° |
| 2026-05-04 19:22 | 41.86954 | 12.20321 | 1161 ft | 121 kts | 161° |
| 2026-05-04 19:22 | 41.86163 | 12.20692 | 1020 ft | 120 kts | 160° |
| 2026-05-04 19:22 | 41.85363 | 12.21070 | 819 ft | 123 kts | 162° |
| 2026-05-04 19:22 | 41.84541 | 12.21383 | 663 ft | 123 kts | 164° |
| 2026-05-04 19:23 | 41.83723 | 12.21712 | 458 ft | 122 kts | 162° |
| 2026-05-04 19:23 | 41.82900 | 12.22054 | 323 ft | 125 kts | 162° |
| 2026-05-04 19:23 | 41.82071 | 12.22446 | 205 ft | 128 kts | 162° |
| 2026-05-04 19:23 | 41.81222 | 12.22786 | 28 ft | 125 kts | 163° |
| 2026-05-04 19:24 | 41.80508 | 12.23078 | 22 ft | 76 kts | 163° |
| 2026-05-04 19:24 | 41.80287 | 12.23169 | 25 ft | 1 kts | 163° |
| 2026-05-04 19:24 | 41.80103 | 12.23248 | 26 ft | 51 kts | 162° |
| 2026-05-04 19:24 | 41.79692 | 12.23421 | 18 ft | 60 kts | 160° |
| 2026-05-04 19:25 | 41.79419 | 12.23668 | 16 ft | 45 kts | 132° |
| 2026-05-04 19:25 | 41.79325 | 12.23822 | 23 ft | 13 kts | 115° |
| 2026-05-04 19:25 | 41.79322 | 12.23882 | 24 ft | 0 kts | 89° |
| 2026-05-04 19:27 | 41.79326 | 12.23933 | 24 ft | 15 kts | 77° |
| 2026-05-04 19:27 | 41.79346 | 12.24016 | 26 ft | 0 kts | 77° |
| 2026-05-04 19:28 | 41.79342 | 12.24037 | 26 ft | 8 kts | 108° |
| 2026-05-04 19:28 | 41.79313 | 12.24060 | 26 ft | 6 kts | 159° |
| 2026-05-04 19:29 | 41.79262 | 12.24086 | 26 ft | 9 kts | 160° |
| 2026-05-04 19:29 | 41.79188 | 12.24121 | 28 ft | 13 kts | 160° |
| 2026-05-04 19:29 | 41.79084 | 12.24172 | 21 ft | 18 kts | 160° |
| 2026-05-04 19:29 | 41.78984 | 12.24253 | 21 ft | 12 kts | 112° |
| 2026-05-04 19:30 | 41.78983 | 12.24265 | 22 ft | 0 kts | 97° |
| 2026-05-04 19:30 | 41.79698 | 12.24256 | 23 ft | 0 kts | 220° |